PST: 20:15 MST: 21:15 CST: 22:15 EST: 23:15 LDN: 04:15 UTC: 03:15
User Agent: CCBot/2.0 (http://commoncrawl.org/faq/)
IP Address: 54.224.137.45
Hostname: ec2-54-224-137-45.compute-1.amazonaws.com

METAR:
KBFI 230253Z 31005KT 10SM SCT250 24/11 A3002 RMK AO2 SLP167 T02440111 56008
KBFI 230153Z 31006KT 10SM CLR 26/11 A3003 RMK AO2 SLP167 T02560111
KBFI 230053Z 31007KT 10SM CLR 26/12 A3004 RMK AO2 SLP170 T02610117
KBFI 222353Z 31009G16KT 10SM CLR 27/12 A3005 RMK AO2 SLP175 T02670117 10272 20206 58018

TAF:
KBFI 222320Z 2300/2324 31008KT P6SM SCT250
FM 230400 VRB03KT P6SM SCT250
FM 231600 33006KT P6SM SCT250
FM 232100 23012KT P6SM SCT250

KBFI 221720Z 2218/2318 31008KT P6SM BKN250
FM 230400 VRB03KT P6SM BKN250
FM 231600 33006KT P6SM SCT250

KBFI 221149Z 2212/2312 00000KT P6SM SKC
FM 221900 31007KT P6SM SKC
FM 230600 16003KT P6SM SKC

KBFI 220530Z 2206/2306 VRB03KT P6SM SKC
FM 221900 31008KT P6SM SKC

KBFI 212320Z 2200/2224 33006KT P6SM SCT250
FM 220600 VRB03KT P6SM SKC
FM 221900 31008KT P6SM SKC